sensor_id;sensor_type;location;lat;lon;timestamp;noise_LAeq;noise_LA_min;noise_LA_max;noise_LA01;noise_LA95
66456;Laerm;56833;52.254;5.598;2023-02-25T00:00:04;44.90;44.05;45.91;;
66456;Laerm;56833;52.254;5.598;2023-02-25T00:00:20;44.90;43.81;45.88;;
66456;Laerm;56833;52.254;5.598;2023-02-25T00:00:30;44.91;43.88;45.92;;
66456;Laerm;56833;52.254;5.598;2023-02-25T00:00:41;44.86;43.54;46.03;;
66456;Laerm;56833;52.254;5.598;2023-02-25T00:00:52;44.85;43.57;45.99;;
66456;Laerm;56833;52.254;5.598;2023-02-25T00:01:06;44.84;43.95;45.95;;
66456;Laerm;56833;52.254;5.598;2023-02-25T00:01:17;44.85;43.50;46.17;;
66456;Laerm;56833;52.254;5.598;2023-02-25T00:01:28;44.86;43.98;45.76;;
66456;Laerm;56833;52.254;5.598;2023-02-25T00:01:41;44.87;43.79;46.25;;
66456;Laerm;56833;52.254;5.598;2023-02-25T00:01:53;44.87;43.89;45.84;;
66456;Laerm;56833;52.254;5.598;2023-02-25T00:02:04;44.87;43.96;45.85;;
66456;Laerm;56833;52.254;5.598;2023-02-25T00:02:14;44.84;43.89;46.43;;
66456;Laerm;56833;52.254;5.598;2023-02-25T00:02:24;44.88;43.93;45.64;;
66456;Laerm;56833;52.254;5.598;2023-02-25T00:02:35;44.83;43.89;45.69;;
66456;Laerm;56833;52.254;5.598;2023-02-25T00:02:45;44.85;43.93;45.70;;
66456;Laerm;56833;52.254;5.598;2023-02-25T00:02:56;44.84;43.56;45.72;;
66456;Laerm;56833;52.254;5.598;2023-02-25T00:03:07;44.89;43.98;45.77;;
66456;Laerm;56833;52.254;5.598;2023-02-25T00:03:17;44.86;43.87;45.95;;
66456;Laerm;56833;52.254;5.598;2023-02-25T00:03:28;44.85;43.94;46.03;;
66456;Laerm;56833;52.254;5.598;2023-02-25T00:03:39;44.85;43.91;45.92;;
66456;Laerm;56833;52.254;5.598;2023-02-25T00:03:50;44.83;43.87;45.72;;
66456;Laerm;56833;52.254;5.598;2023-02-25T00:04:00;44.88;44.06;45.80;;
66456;Laerm;56833;52.254;5.598;2023-02-25T00:04:11;44.89;43.91;46.09;;
66456;Laerm;56833;52.254;5.598;2023-02-25T00:04:21;44.84;43.91;46.07;;
66456;Laerm;56833;52.254;5.598;2023-02-25T00:04:31;44.87;43.82;46.01;;
66456;Laerm;56833;52.254;5.598;2023-02-25T00:04:42;44.86;43.92;45.84;;
66456;Laerm;56833;52.254;5.598;2023-02-25T00:04:52;44.85;43.71;46.04;;
66456;Laerm;56833;52.254;5.598;2023-02-25T00:05:02;44.85;43.84;46.01;;
66456;Laerm;56833;52.254;5.598;2023-02-25T00:05:16;44.83;43.63;45.69;;
66456;Laerm;56833;52.254;5.598;2023-02-25T00:05:27;44.85;43.96;46.03;;
66456;Laerm;56833;52.254;5.598;2023-02-25T00:05:39;44.85;43.86;45.90;;
66456;Laerm;56833;52.254;5.598;2023-02-25T00:05:50;44.87;43.85;45.81;;
66456;Laerm;56833;52.254;5.598;2023-02-25T00:06:06;44.88;43.94;46.20;;
66456;Laerm;56833;52.254;5.598;2023-02-25T00:06:18;44.86;43.75;46.01;;
66456;Laerm;56833;52.254;5.598;2023-02-25T00:06:30;44.83;43.79;45.87;;
66456;Laerm;56833;52.254;5.598;2023-02-25T00:06:41;44.82;43.81;45.79;;
66456;Laerm;56833;52.254;5.598;2023-02-25T00:06:51;44.85;43.87;45.90;;
66456;Laerm;56833;52.254;5.598;2023-02-25T00:07:01;44.82;43.90;45.59;;
66456;Laerm;56833;52.254;5.598;2023-02-25T00:07:11;44.87;43.89;45.94;;
66456;Laerm;56833;52.254;5.598;2023-02-25T00:07:22;44.88;43.79;46.01;;
66456;Laerm;56833;52.254;5.598;2023-02-25T00:07:37;44.86;43.47;46.10;;
66456;Laerm;56833;52.254;5.598;2023-02-25T00:07:48;44.88;43.90;46.01;;
66456;Laerm;56833;52.254;5.598;2023-02-25T00:07:58;44.85;43.72;45.88;;
66456;Laerm;56833;52.254;5.598;2023-02-25T00:08:09;44.89;43.99;46.07;;
66456;Laerm;56833;52.254;5.598;2023-02-25T00:08:19;44.88;44.02;45.68;;
66456;Laerm;56833;52.254;5.598;2023-02-25T00:08:29;44.86;43.95;45.92;;
66456;Laerm;56833;52.254;5.598;2023-02-25T00:08:43;44.88;43.79;45.76;;
66456;Laerm;56833;52.254;5.598;2023-02-25T00:08:54;44.88;43.53;45.96;;
66456;Laerm;56833;52.254;5.598;2023-02-25T00:09:05;44.88;43.90;45.78;;
66456;Laerm;56833;52.254;5.598;2023-02-25T00:09:15;44.90;43.80;46.11;;
66456;Laerm;56833;52.254;5.598;2023-02-25T00:09:25;44.88;43.81;45.79;;
66456;Laerm;56833;52.254;5.598;2023-02-25T00:09:36;44.91;44.07;45.87;;
66456;Laerm;56833;52.254;5.598;2023-02-25T00:09:46;44.89;43.93;46.00;;
66456;Laerm;56833;52.254;5.598;2023-02-25T00:09:56;44.95;44.09;45.79;;
66456;Laerm;56833;52.254;5.598;2023-02-25T00:10:07;44.90;43.98;45.62;;
66456;Laerm;56833;52.254;5.598;2023-02-25T00:10:18;44.93;43.98;46.09;;
66456;Laerm;56833;52.254;5.598;2023-02-25T00:10:28;44.93;43.93;45.78;;
66456;Laerm;56833;52.254;5.598;2023-02-25T00:10:39;44.89;43.72;45.91;;
66456;Laerm;56833;52.254;5.598;2023-02-25T00:10:59;44.92;43.84;45.70;;
66456;Laerm;56833;52.254;5.598;2023-02-25T00:11:09;44.92;43.86;45.99;;
66456;Laerm;56833;52.254;5.598;2023-02-25T00:11:21;44.85;43.80;45.96;;
66456;Laerm;56833;52.254;5.598;2023-02-25T00:11:31;44.92;43.78;45.88;;
66456;Laerm;56833;52.254;5.598;2023-02-25T00:11:41;44.90;44.04;45.78;;
66456;Laerm;56833;52.254;5.598;2023-02-25T00:11:52;44.93;43.91;46.05;;
66456;Laerm;56833;52.254;5.598;2023-02-25T00:12:02;44.95;43.85;45.96;;
66456;Laerm;56833;52.254;5.598;2023-02-25T00:12:12;44.94;43.62;45.89;;
66456;Laerm;56833;52.254;5.598;2023-02-25T00:12:22;44.92;43.98;45.96;;
66456;Laerm;56833;52.254;5.598;2023-02-25T00:12:33;44.92;44.02;45.89;;
66456;Laerm;56833;52.254;5.598;2023-02-25T00:12:43;44.92;43.95;45.73;;
66456;Laerm;56833;52.254;5.598;2023-02-25T00:12:54;44.94;43.89;45.83;;
66456;Laerm;56833;52.254;5.598;2023-02-25T00:13:04;44.92;44.08;45.86;;
66456;Laerm;56833;52.254;5.598;2023-02-25T00:13:14;44.88;43.86;46.05;;
66456;Laerm;56833;52.254;5.598;2023-02-25T00:13:25;44.89;43.87;46.01;;
66456;Laerm;56833;52.254;5.598;2023-02-25T00:13:35;44.93;43.78;45.86;;
66456;Laerm;56833;52.254;5.598;2023-02-25T00:13:48;44.91;43.82;45.96;;
66456;Laerm;56833;52.254;5.598;2023-02-25T00:13:59;44.94;43.77;45.95;;
66456;Laerm;56833;52.254;5.598;2023-02-25T00:14:09;44.91;43.45;45.85;;
66456;Laerm;56833;52.254;5.598;2023-02-25T00:14:20;44.95;43.79;45.99;;
66456;Laerm;56833;52.254;5.598;2023-02-25T00:14:30;44.95;43.78;46.09;;
66456;Laerm;56833;52.254;5.598;2023-02-25T00:14:41;44.92;43.96;45.84;;
66456;Laerm;56833;52.254;5.598;2023-02-25T00:14:51;44.95;43.75;45.92;;
66456;Laerm;56833;52.254;5.598;2023-02-25T00:15:01;44.94;43.93;46.22;;
66456;Laerm;56833;52.254;5.598;2023-02-25T00:15:11;44.92;43.98;46.03;;
66456;Laerm;56833;52.254;5.598;2023-02-25T00:15:22;44.93;43.61;45.98;;
66456;Laerm;56833;52.254;5.598;2023-02-25T00:15:32;44.95;44.12;45.82;;
66456;Laerm;56833;52.254;5.598;2023-02-25T00:15:42;44.93;43.79;46.24;;
66456;Laerm;56833;52.254;5.598;2023-02-25T00:15:53;44.90;43.65;46.03;;
66456;Laerm;56833;52.254;5.598;2023-02-25T00:16:03;44.91;43.72;45.72;;
66456;Laerm;56833;52.254;5.598;2023-02-25T00:16:14;44.92;43.97;45.87;;
66456;Laerm;56833;52.254;5.598;2023-02-25T00:16:25;44.90;43.72;45.90;;
66456;Laerm;56833;52.254;5.598;2023-02-25T00:16:35;44.89;44.04;45.98;;
66456;Laerm;56833;52.254;5.598;2023-02-25T00:16:45;44.93;43.87;45.84;;
66456;Laerm;56833;52.254;5.598;2023-02-25T00:16:57;44.92;43.51;45.88;;
66456;Laerm;56833;52.254;5.598;2023-02-25T00:17:08;44.95;43.83;46.04;;
66456;Laerm;56833;52.254;5.598;2023-02-25T00:17:18;44.96;44.03;46.01;;
66456;Laerm;56833;52.254;5.598;2023-02-25T00:17:28;44.96;44.11;46.00;;
66456;Laerm;56833;52.254;5.598;2023-02-25T00:17:38;44.94;44.00;46.00;;
66456;Laerm;56833;52.254;5.598;2023-02-25T00:17:52;44.93;43.93;46.15;;
66456;Laerm;56833;52.254;5.598;2023-02-25T00:18:03;44.93;43.76;45.91;;
66456;Laerm;56833;52.254;5.598;2023-02-25T00:18:13;44.95;43.94;45.96;;
66456;Laerm;56833;52.254;5.598;2023-02-25T00:18:26;44.95;44.13;45.87;;
66456;Laerm;56833;52.254;5.598;2023-02-25T00:18:37;44.99;43.80;45.95;;
66456;Laerm;56833;52.254;5.598;2023-02-25T00:18:55;44.97;44.06;45.97;;
66456;Laerm;56833;52.254;5.598;2023-02-25T00:19:06;44.96;43.81;46.04;;
66456;Laerm;56833;52.254;5.598;2023-02-25T00:19:16;44.98;44.03;46.06;;
66456;Laerm;56833;52.254;5.598;2023-02-25T00:19:26;44.95;43.98;45.91;;
66456;Laerm;56833;52.254;5.598;2023-02-25T00:19:37;45.00;43.85;45.84;;
66456;Laerm;56833;52.254;5.598;2023-02-25T00:19:48;44.98;44.01;46.07;;
66456;Laerm;56833;52.254;5.598;2023-02-25T00:19:58;44.95;43.80;46.20;;
66456;Laerm;56833;52.254;5.598;2023-02-25T00:20:09;44.96;44.03;45.87;;
66456;Laerm;56833;52.254;5.598;2023-02-25T00:20:22;44.99;43.93;46.03;;
66456;Laerm;56833;52.254;5.598;2023-02-25T00:20:32;44.96;43.87;46.12;;
66456;Laerm;56833;52.254;5.598;2023-02-25T00:20:42;44.94;44.03;46.07;;
66456;Laerm;56833;52.254;5.598;2023-02-25T00:20:52;44.95;44.00;45.85;;
66456;Laerm;56833;52.254;5.598;2023-02-25T00:21:03;44.98;43.99;45.91;;
66456;Laerm;56833;52.254;5.598;2023-02-25T00:21:14;44.92;43.92;46.03;;
66456;Laerm;56833;52.254;5.598;2023-02-25T00:21:25;44.97;43.86;46.00;;
66456;Laerm;56833;52.254;5.598;2023-02-25T00:21:38;44.96;43.75;45.81;;
66456;Laerm;56833;52.254;5.598;2023-02-25T00:21:48;44.97;43.95;45.96;;
66456;Laerm;56833;52.254;5.598;2023-02-25T00:21:58;44.96;43.61;45.98;;
66456;Laerm;56833;52.254;5.598;2023-02-25T00:22:09;44.93;43.98;46.01;;
66456;Laerm;56833;52.254;5.598;2023-02-25T00:22:19;44.98;44.08;46.10;;
66456;Laerm;56833;52.254;5.598;2023-02-25T00:22:30;44.97;43.81;46.04;;
66456;Laerm;56833;52.254;5.598;2023-02-25T00:22:41;44.99;43.99;46.06;;
66456;Laerm;56833;52.254;5.598;2023-02-25T00:22:51;45.01;43.97;46.02;;
66456;Laerm;56833;52.254;5.598;2023-02-25T00:23:02;44.94;43.95;46.20;;
66456;Laerm;56833;52.254;5.598;2023-02-25T00:23:12;44.98;43.97;46.04;;
66456;Laerm;56833;52.254;5.598;2023-02-25T00:23:22;44.99;43.88;46.16;;
66456;Laerm;56833;52.254;5.598;2023-02-25T00:23:33;44.97;43.88;46.22;;
66456;Laerm;56833;52.254;5.598;2023-02-25T00:23:43;44.94;43.79;45.96;;
66456;Laerm;56833;52.254;5.598;2023-02-25T00:23:54;44.96;43.82;45.94;;
66456;Laerm;56833;52.254;5.598;2023-02-25T00:24:05;45.00;43.98;45.98;;
66456;Laerm;56833;52.254;5.598;2023-02-25T00:24:15;44.95;44.02;45.97;;
66456;Laerm;56833;52.254;5.598;2023-02-25T00:24:25;45.00;43.94;45.94;;
66456;Laerm;56833;52.254;5.598;2023-02-25T00:24:36;44.98;43.83;45.97;;
66456;Laerm;56833;52.254;5.598;2023-02-25T00:24:46;44.94;43.94;46.14;;
66456;Laerm;56833;52.254;5.598;2023-02-25T00:24:56;44.90;43.97;45.80;;
66456;Laerm;56833;52.254;5.598;2023-02-25T00:25:07;44.88;43.99;46.11;;
66456;Laerm;56833;52.254;5.598;2023-02-25T00:25:18;44.91;43.85;45.82;;
66456;Laerm;56833;52.254;5.598;2023-02-25T00:25:28;44.88;44.08;45.92;;
66456;Laerm;56833;52.254;5.598;2023-02-25T00:25:38;44.95;43.78;46.00;;
66456;Laerm;56833;52.254;5.598;2023-02-25T00:25:48;44.91;43.81;45.94;;
66456;Laerm;56833;52.254;5.598;2023-02-25T00:25:59;44.95;43.93;45.91;;
66456;Laerm;56833;52.254;5.598;2023-02-25T00:26:10;44.89;43.90;46.04;;
66456;Laerm;56833;52.254;5.598;2023-02-25T00:26:20;44.91;44.08;46.12;;
66456;Laerm;56833;52.254;5.598;2023-02-25T00:26:31;44.90;43.73;46.13;;
66456;Laerm;56833;52.254;5.598;2023-02-25T00:26:41;44.91;43.53;45.80;;
66456;Laerm;56833;52.254;5.598;2023-02-25T00:26:52;44.89;43.81;46.27;;
66456;Laerm;56833;52.254;5.598;2023-02-25T00:27:03;44.89;43.98;45.84;;
66456;Laerm;56833;52.254;5.598;2023-02-25T00:27:13;44.87;43.90;45.75;;
66456;Laerm;56833;52.254;5.598;2023-02-25T00:27:23;44.89;43.75;46.22;;
66456;Laerm;56833;52.254;5.598;2023-02-25T00:27:34;44.90;43.83;46.03;;
66456;Laerm;56833;52.254;5.598;2023-02-25T00:27:45;44.86;43.88;45.89;;
66456;Laerm;56833;52.254;5.598;2023-02-25T00:27:55;44.89;43.91;45.86;;
66456;Laerm;56833;52.254;5.598;2023-02-25T00:28:06;44.88;43.60;46.02;;
66456;Laerm;56833;52.254;5.598;2023-02-25T00:28:16;44.89;43.67;45.84;;
66456;Laerm;56833;52.254;5.598;2023-02-25T00:28:26;44.88;43.81;46.16;;
66456;Laerm;56833;52.254;5.598;2023-02-25T00:28:37;44.89;44.05;46.05;;
66456;Laerm;56833;52.254;5.598;2023-02-25T00:28:49;44.87;43.84;45.85;;
66456;Laerm;56833;52.254;5.598;2023-02-25T00:28:59;44.89;43.67;46.11;;
66456;Laerm;56833;52.254;5.598;2023-02-25T00:29:09;44.87;43.82;45.85;;
66456;Laerm;56833;52.254;5.598;2023-02-25T00:29:19;44.86;43.64;45.90;;
66456;Laerm;56833;52.254;5.598;2023-02-25T00:29:29;44.89;43.77;45.69;;
66456;Laerm;56833;52.254;5.598;2023-02-25T00:29:40;44.85;43.83;45.90;;
66456;Laerm;56833;52.254;5.598;2023-02-25T00:29:50;44.85;43.81;45.82;;
66456;Laerm;56833;52.254;5.598;2023-02-25T00:30:01;44.83;43.91;45.67;;
66456;Laerm;56833;52.254;5.598;2023-02-25T00:30:11;44.80;43.83;45.68;;
66456;Laerm;56833;52.254;5.598;2023-02-25T00:30:21;44.86;43.93;45.65;;
66456;Laerm;56833;52.254;5.598;2023-02-25T00:30:32;44.86;43.88;45.98;;
66456;Laerm;56833;52.254;5.598;2023-02-25T00:30:43;44.83;43.71;45.90;;
66456;Laerm;56833;52.254;5.598;2023-02-25T00:30:53;44.86;43.64;45.96;;
66456;Laerm;56833;52.254;5.598;2023-02-25T00:31:07;44.86;43.46;45.72;;
66456;Laerm;56833;52.254;5.598;2023-02-25T00:31:19;44.86;43.82;45.87;;
66456;Laerm;56833;52.254;5.598;2023-02-25T00:31:29;44.86;43.64;45.89;;
66456;Laerm;56833;52.254;5.598;2023-02-25T00:31:39;44.83;43.53;45.84;;
66456;Laerm;56833;52.254;5.598;2023-02-25T00:31:50;44.80;43.66;45.78;;
66456;Laerm;56833;52.254;5.598;2023-02-25T00:32:00;44.83;43.87;45.75;;
66456;Laerm;56833;52.254;5.598;2023-02-25T00:32:10;44.81;43.85;45.82;;
66456;Laerm;56833;52.254;5.598;2023-02-25T00:32:21;44.83;43.89;45.76;;
66456;Laerm;56833;52.254;5.598;2023-02-25T00:32:31;44.82;43.85;45.80;;
66456;Laerm;56833;52.254;5.598;2023-02-25T00:32:41;44.83;43.75;45.78;;
66456;Laerm;56833;52.254;5.598;2023-02-25T00:32:51;44.83;43.96;45.92;;
66456;Laerm;56833;52.254;5.598;2023-02-25T00:33:02;44.85;43.90;45.93;;
66456;Laerm;56833;52.254;5.598;2023-02-25T00:33:12;44.83;43.85;45.86;;
66456;Laerm;56833;52.254;5.598;2023-02-25T00:33:23;44.80;43.77;45.84;;
66456;Laerm;56833;52.254;5.598;2023-02-25T00:33:33;44.77;43.69;45.67;;
66456;Laerm;56833;52.254;5.598;2023-02-25T00:33:44;44.81;43.81;45.88;;
66456;Laerm;56833;52.254;5.598;2023-02-25T00:33:54;44.81;43.85;45.76;;
66456;Laerm;56833;52.254;5.598;2023-02-25T00:34:04;44.81;43.83;45.58;;
66456;Laerm;56833;52.254;5.598;2023-02-25T00:34:14;44.80;43.71;45.95;;
66456;Laerm;56833;52.254;5.598;2023-02-25T00:34:26;44.82;43.87;45.77;;
66456;Laerm;56833;52.254;5.598;2023-02-25T00:34:37;44.80;43.97;45.59;;
66456;Laerm;56833;52.254;5.598;2023-02-25T00:34:47;44.84;43.82;45.66;;
66456;Laerm;56833;52.254;5.598;2023-02-25T00:34:58;44.80;43.77;45.73;;
66456;Laerm;56833;52.254;5.598;2023-02-25T00:35:08;44.82;43.87;45.61;;
66456;Laerm;56833;52.254;5.598;2023-02-25T00:35:21;44.76;43.79;45.79;;
66456;Laerm;56833;52.254;5.598;2023-02-25T00:35:31;44.78;43.84;45.78;;
66456;Laerm;56833;52.254;5.598;2023-02-25T00:35:42;44.82;43.86;45.93;;
66456;Laerm;56833;52.254;5.598;2023-02-25T00:35:52;44.76;43.88;45.64;;
66456;Laerm;56833;52.254;5.598;2023-02-25T00:36:05;44.79;43.87;45.65;;
66456;Laerm;56833;52.254;5.598;2023-02-25T00:36:17;44.79;43.56;45.81;;
66456;Laerm;56833;52.254;5.598;2023-02-25T00:36:28;44.80;43.36;45.85;;
66456;Laerm;56833;52.254;5.598;2023-02-25T00:36:39;44.80;43.89;45.69;;
66456;Laerm;56833;52.254;5.598;2023-02-25T00:36:49;44.77;43.59;45.71;;
66456;Laerm;56833;52.254;5.598;2023-02-25T00:36:59;44.77;43.79;45.82;;
66456;Laerm;56833;52.254;5.598;2023-02-25T00:37:09;44.78;43.84;45.78;;
66456;Laerm;56833;52.254;5.598;2023-02-25T00:37:20;44.78;43.40;45.71;;
66456;Laerm;56833;52.254;5.598;2023-02-25T00:37:30;44.79;43.82;45.70;;
66456;Laerm;56833;52.254;5.598;2023-02-25T00:37:40;44.79;43.85;45.79;;
66456;Laerm;56833;52.254;5.598;2023-02-25T00:37:50;44.75;43.70;45.70;;
66456;Laerm;56833;52.254;5.598;2023-02-25T00:38:01;44.83;43.54;45.88;;
66456;Laerm;56833;52.254;5.598;2023-02-25T00:38:11;44.76;43.76;45.75;;
66456;Laerm;56833;52.254;5.598;2023-02-25T00:38:21;44.78;43.87;45.58;;
66456;Laerm;56833;52.254;5.598;2023-02-25T00:38:31;44.81;43.72;45.94;;
66456;Laerm;56833;52.254;5.598;2023-02-25T00:38:41;44.84;43.65;45.93;;
66456;Laerm;56833;52.254;5.598;2023-02-25T00:38:53;44.80;43.55;46.00;;
66456;Laerm;56833;52.254;5.598;2023-02-25T00:39:04;44.78;43.91;45.66;;
66456;Laerm;56833;52.254;5.598;2023-02-25T00:39:14;44.81;43.51;45.69;;
66456;Laerm;56833;52.254;5.598;2023-02-25T00:39:25;44.83;43.72;45.74;;
66456;Laerm;56833;52.254;5.598;2023-02-25T00:39:50;44.82;43.61;45.99;;
66456;Laerm;56833;52.254;5.598;2023-02-25T00:40:01;44.79;43.65;45.75;;
66456;Laerm;56833;52.254;5.598;2023-02-25T00:40:11;44.77;43.80;45.69;;
66456;Laerm;56833;52.254;5.598;2023-02-25T00:40:24;44.78;43.66;45.71;;
66456;Laerm;56833;52.254;5.598;2023-02-25T00:40:38;44.81;43.86;45.73;;
66456;Laerm;56833;52.254;5.598;2023-02-25T00:40:48;44.79;43.83;45.75;;
66456;Laerm;56833;52.254;5.598;2023-02-25T00:41:02;44.75;43.38;45.59;;
66456;Laerm;56833;52.254;5.598;2023-02-25T00:41:13;44.77;43.68;45.82;;
66456;Laerm;56833;52.254;5.598;2023-02-25T00:41:26;44.78;43.69;45.75;;
66456;Laerm;56833;52.254;5.598;2023-02-25T00:41:36;44.79;43.53;45.71;;
66456;Laerm;56833;52.254;5.598;2023-02-25T00:41:46;44.81;43.49;45.75;;
66456;Laerm;56833;52.254;5.598;2023-02-25T00:41:57;44.81;43.88;46.04;;
66456;Laerm;56833;52.254;5.598;2023-02-25T00:42:10;44.83;44.00;45.85;;
66456;Laerm;56833;52.254;5.598;2023-02-25T00:42:21;44.80;43.79;45.80;;
66456;Laerm;56833;52.254;5.598;2023-02-25T00:42:31;44.78;43.81;45.70;;
66456;Laerm;56833;52.254;5.598;2023-02-25T00:42:42;44.79;43.77;45.87;;
66456;Laerm;56833;52.254;5.598;2023-02-25T00:42:52;44.83;43.80;45.94;;
66456;Laerm;56833;52.254;5.598;2023-02-25T00:43:02;44.82;43.94;45.99;;
66456;Laerm;56833;52.254;5.598;2023-02-25T00:43:12;44.80;43.84;46.14;;
66456;Laerm;56833;52.254;5.598;2023-02-25T00:43:23;44.80;43.45;45.84;;
66456;Laerm;56833;52.254;5.598;2023-02-25T00:43:33;44.82;43.84;45.75;;
66456;Laerm;56833;52.254;5.598;2023-02-25T00:43:47;44.78;43.52;45.86;;
66456;Laerm;56833;52.254;5.598;2023-02-25T00:43:58;44.82;43.88;45.75;;
66456;Laerm;56833;52.254;5.598;2023-02-25T00:44:09;44.78;43.51;45.89;;
66456;Laerm;56833;52.254;5.598;2023-02-25T00:44:19;44.78;43.86;45.75;;
66456;Laerm;56833;52.254;5.598;2023-02-25T00:44:29;44.79;43.87;45.81;;
66456;Laerm;56833;52.254;5.598;2023-02-25T00:44:43;44.82;43.92;45.93;;
66456;Laerm;56833;52.254;5.598;2023-02-25T00:44:54;44.75;43.60;45.79;;
66456;Laerm;56833;52.254;5.598;2023-02-25T00:45:04;44.79;43.73;45.74;;
66456;Laerm;56833;52.254;5.598;2023-02-25T00:45:15;44.80;43.61;45.84;;
66456;Laerm;56833;52.254;5.598;2023-02-25T00:45:25;44.78;43.95;45.69;;
66456;Laerm;56833;52.254;5.598;2023-02-25T00:45:37;44.83;43.82;45.90;;
66456;Laerm;56833;52.254;5.598;2023-02-25T00:45:48;44.79;43.57;46.04;;
66456;Laerm;56833;52.254;5.598;2023-02-25T00:45:58;44.76;43.83;45.81;;
66456;Laerm;56833;52.254;5.598;2023-02-25T00:46:09;44.79;43.82;45.77;;
66456;Laerm;56833;52.254;5.598;2023-02-25T00:46:20;44.81;43.79;46.02;;
66456;Laerm;56833;52.254;5.598;2023-02-25T00:46:31;44.79;43.25;45.73;;
66456;Laerm;56833;52.254;5.598;2023-02-25T00:46:41;44.80;43.95;45.88;;
66456;Laerm;56833;52.254;5.598;2023-02-25T00:46:51;44.80;43.62;45.99;;
66456;Laerm;56833;52.254;5.598;2023-02-25T00:47:02;44.80;43.77;45.82;;
66456;Laerm;56833;52.254;5.598;2023-02-25T00:47:13;44.74;43.62;45.55;;
66456;Laerm;56833;52.254;5.598;2023-02-25T00:47:24;44.77;43.77;45.78;;
66456;Laerm;56833;52.254;5.598;2023-02-25T00:47:34;44.81;43.85;45.63;;
66456;Laerm;56833;52.254;5.598;2023-02-25T00:47:44;44.79;43.52;45.62;;
66456;Laerm;56833;52.254;5.598;2023-02-25T00:47:55;44.82;43.71;46.07;;
66456;Laerm;56833;52.254;5.598;2023-02-25T00:48:05;44.82;43.81;45.93;;
66456;Laerm;56833;52.254;5.598;2023-02-25T00:48:15;44.80;43.80;45.76;;
66456;Laerm;56833;52.254;5.598;2023-02-25T00:48:26;44.82;43.89;45.86;;
66456;Laerm;56833;52.254;5.598;2023-02-25T00:48:36;44.74;43.68;45.64;;
66456;Laerm;56833;52.254;5.598;2023-02-25T00:48:47;44.79;43.58;46.23;;
66456;Laerm;56833;52.254;5.598;2023-02-25T00:48:57;44.80;43.70;45.70;;
66456;Laerm;56833;52.254;5.598;2023-02-25T00:49:07;44.85;43.45;45.92;;
66456;Laerm;56833;52.254;5.598;2023-02-25T00:49:18;44.81;43.81;45.87;;
66456;Laerm;56833;52.254;5.598;2023-02-25T00:49:28;44.82;43.63;45.78;;
66456;Laerm;56833;52.254;5.598;2023-02-25T00:49:38;44.79;43.89;45.87;;
66456;Laerm;56833;52.254;5.598;2023-02-25T00:49:48;44.82;43.41;45.82;;
66456;Laerm;56833;52.254;5.598;2023-02-25T00:50:00;44.81;43.90;45.69;;
66456;Laerm;56833;52.254;5.598;2023-02-25T00:50:10;44.80;44.01;45.80;;
66456;Laerm;56833;52.254;5.598;2023-02-25T00:50:21;44.76;43.90;45.86;;
66456;Laerm;56833;52.254;5.598;2023-02-25T00:50:31;44.83;43.91;45.76;;
66456;Laerm;56833;52.254;5.598;2023-02-25T00:50:42;44.79;43.84;45.91;;
66456;Laerm;56833;52.254;5.598;2023-02-25T00:50:52;44.77;43.56;45.73;;
66456;Laerm;56833;52.254;5.598;2023-02-25T00:51:06;44.79;43.65;45.77;;
66456;Laerm;56833;52.254;5.598;2023-02-25T00:51:17;44.81;43.76;45.66;;
66456;Laerm;56833;52.254;5.598;2023-02-25T00:51:29;44.81;44.02;45.73;;
66456;Laerm;56833;52.254;5.598;2023-02-25T00:51:39;44.77;43.79;45.73;;
66456;Laerm;56833;52.254;5.598;2023-02-25T00:51:49;44.82;43.60;45.90;;
66456;Laerm;56833;52.254;5.598;2023-02-25T00:52:00;44.82;43.75;45.63;;
66456;Laerm;56833;52.254;5.598;2023-02-25T00:52:10;44.80;43.84;45.78;;
66456;Laerm;56833;52.254;5.598;2023-02-25T00:52:20;44.82;43.63;45.93;;
66456;Laerm;56833;52.254;5.598;2023-02-25T00:52:31;44.79;43.54;45.83;;
66456;Laerm;56833;52.254;5.598;2023-02-25T00:52:42;44.78;43.76;45.75;;
66456;Laerm;56833;52.254;5.598;2023-02-25T00:52:52;44.77;43.58;45.81;;
66456;Laerm;56833;52.254;5.598;2023-02-25T00:53:02;44.82;43.87;45.72;;
66456;Laerm;56833;52.254;5.598;2023-02-25T00:53:12;44.82;43.90;46.01;;
66456;Laerm;56833;52.254;5.598;2023-02-25T00:53:22;44.80;43.87;45.82;;
66456;Laerm;56833;52.254;5.598;2023-02-25T00:53:33;44.81;43.76;45.61;;
66456;Laerm;56833;52.254;5.598;2023-02-25T00:53:43;44.78;43.82;45.56;;
66456;Laerm;56833;52.254;5.598;2023-02-25T00:53:54;44.80;43.79;46.09;;
66456;Laerm;56833;52.254;5.598;2023-02-25T00:54:07;44.78;43.67;45.83;;
66456;Laerm;56833;52.254;5.598;2023-02-25T00:54:17;44.77;43.77;45.73;;
66456;Laerm;56833;52.254;5.598;2023-02-25T00:54:27;44.77;43.82;46.03;;
66456;Laerm;56833;52.254;5.598;2023-02-25T00:54:37;44.78;43.62;45.72;;
66456;Laerm;56833;52.254;5.598;2023-02-25T00:54:48;44.82;43.70;45.85;;
66456;Laerm;56833;52.254;5.598;2023-02-25T00:54:58;44.79;43.96;45.74;;
66456;Laerm;56833;52.254;5.598;2023-02-25T00:55:09;44.77;43.72;45.67;;
66456;Laerm;56833;52.254;5.598;2023-02-25T00:55:19;44.80;43.76;45.81;;
66456;Laerm;56833;52.254;5.598;2023-02-25T00:55:29;44.80;43.75;46.03;;
66456;Laerm;56833;52.254;5.598;2023-02-25T00:55:42;44.80;43.67;45.88;;
66456;Laerm;56833;52.254;5.598;2023-02-25T00:55:59;44.79;43.87;45.78;;
66456;Laerm;56833;52.254;5.598;2023-02-25T00:56:10;44.81;43.57;46.02;;
66456;Laerm;56833;52.254;5.598;2023-02-25T00:56:24;44.81;43.90;45.90;;
66456;Laerm;56833;52.254;5.598;2023-02-25T00:56:35;44.82;43.95;46.12;;
66456;Laerm;56833;52.254;5.598;2023-02-25T00:56:46;44.77;43.66;45.77;;
66456;Laerm;56833;52.254;5.598;2023-02-25T00:56:56;44.80;43.80;45.88;;
66456;Laerm;56833;52.254;5.598;2023-02-25T00:57:06;44.78;43.76;45.79;;
66456;Laerm;56833;52.254;5.598;2023-02-25T00:57:17;44.83;43.63;45.85;;
66456;Laerm;56833;52.254;5.598;2023-02-25T00:57:27;44.81;44.00;45.88;;
66456;Laerm;56833;52.254;5.598;2023-02-25T00:57:37;44.83;43.52;46.09;;
66456;Laerm;56833;52.254;5.598;2023-02-25T00:57:47;44.78;43.67;45.90;;
66456;Laerm;56833;52.254;5.598;2023-02-25T00:57:58;44.82;43.82;46.19;;
66456;Laerm;56833;52.254;5.598;2023-02-25T00:58:09;44.80;43.88;45.86;;
66456;Laerm;56833;52.254;5.598;2023-02-25T00:58:19;44.79;43.71;45.97;;
66456;Laerm;56833;52.254;5.598;2023-02-25T00:58:29;44.78;43.79;45.84;;
66456;Laerm;56833;52.254;5.598;2023-02-25T00:58:40;44.77;43.83;46.11;;
66456;Laerm;56833;52.254;5.598;2023-02-25T00:58:50;44.78;43.59;45.92;;
66456;Laerm;56833;52.254;5.598;2023-02-25T00:59:01;44.76;43.80;45.83;;
66456;Laerm;56833;52.254;5.598;2023-02-25T00:59:11;44.79;43.91;45.74;;
66456;Laerm;56833;52.254;5.598;2023-02-25T00:59:21;44.83;43.69;45.84;;
66456;Laerm;56833;52.254;5.598;2023-02-25T00:59:32;44.79;43.77;45.89;;
66456;Laerm;56833;52.254;5.598;2023-02-25T00:59:42;44.80;43.68;45.75;;
66456;Laerm;56833;52.254;5.598;2023-02-25T00:59:52;44.77;43.79;45.56;;
66456;Laerm;56833;52.254;5.598;2023-02-25T01:00:03;44.78;43.49;45.80;;
66456;Laerm;56833;52.254;5.598;2023-02-25T01:00:18;44.80;43.63;45.96;;
66456;Laerm;56833;52.254;5.598;2023-02-25T01:00:28;44.75;43.66;45.50;;
66456;Laerm;56833;52.254;5.598;2023-02-25T01:00:39;44.79;43.77;45.75;;
66456;Laerm;56833;52.254;5.598;2023-02-25T01:00:52;44.79;43.65;45.76;;